createdAt,value
2023-05-24T00:01:44.305Z,100.00
2023-05-24T00:04:12.697Z,100.00
2023-05-24T00:06:41.838Z,100.00
2023-05-24T00:09:09.737Z,100.00
2023-05-24T00:11:37.513Z,100.00
2023-05-24T00:14:05.610Z,100.00
2023-05-24T00:16:33.767Z,100.00
2023-05-24T00:19:02.564Z,100.00
2023-05-24T00:21:31.079Z,100.00
2023-05-24T00:23:59.099Z,100.00
2023-05-24T00:26:27.230Z,100.00
2023-05-24T00:28:57.156Z,100.00
2023-05-24T00:31:25.159Z,100.00
2023-05-24T00:33:53.442Z,100.00
2023-05-24T00:36:21.784Z,100.00
2023-05-24T00:38:49.536Z,100.00
2023-05-24T00:41:17.665Z,100.00
2023-05-24T00:43:45.627Z,100.00
2023-05-24T00:46:24.883Z,100.00
2023-05-24T00:48:53.037Z,100.00
2023-05-24T00:51:21.275Z,100.00
2023-05-24T00:53:50.376Z,100.00
2023-05-24T00:56:18.755Z,100.00
2023-05-24T00:58:47.013Z,100.00
2023-05-24T01:01:15.418Z,100.00
2023-05-24T01:03:46.812Z,100.00
2023-05-24T01:06:16.376Z,100.00
2023-05-24T01:09:06.912Z,100.00
2023-05-24T01:12:02.994Z,100.00
2023-05-24T01:14:51.417Z,100.00
2023-05-24T01:17:43.195Z,100.00
2023-05-24T01:20:13.865Z,100.00
2023-05-24T01:23:24.705Z,100.00
2023-05-24T01:26:28.050Z,100.00
2023-05-24T01:28:56.081Z,100.00
2023-05-24T01:31:24.462Z,100.00
2023-05-24T01:33:52.391Z,100.00
2023-05-24T01:36:20.167Z,100.00
2023-05-24T01:38:49.285Z,100.00
2023-05-24T01:41:20.089Z,100.00
2023-05-24T01:43:54.174Z,100.00
2023-05-24T01:46:38.962Z,100.00
2023-05-24T01:49:19.294Z,100.00
2023-05-24T01:51:58.945Z,100.00
2023-05-24T01:54:29.228Z,100.00
2023-05-24T01:57:06.172Z,100.00
2023-05-24T01:59:34.551Z,100.00
2023-05-24T02:02:03.080Z,100.00
2023-05-24T02:04:31.414Z,100.00
2023-05-24T02:06:59.675Z,100.00
2023-05-24T02:09:29.692Z,100.00
2023-05-24T02:11:57.817Z,100.00
2023-05-24T02:14:26.645Z,100.00
2023-05-24T02:16:59.358Z,100.00
2023-05-24T02:19:27.616Z,100.00
2023-05-24T02:21:55.304Z,100.00
2023-05-24T02:24:23.328Z,100.00
2023-05-24T02:26:51.178Z,100.00
2023-05-24T02:29:19.067Z,100.00
2023-05-24T02:31:47.056Z,100.00
2023-05-24T02:34:14.941Z,100.00
2023-05-24T02:36:43.883Z,100.00
2023-05-24T02:39:11.665Z,100.00
2023-05-24T02:41:39.589Z,100.00
2023-05-24T02:44:07.347Z,100.00
2023-05-24T02:46:35.579Z,100.00
2023-05-24T02:49:03.677Z,100.00
2023-05-24T02:51:32.985Z,100.00
2023-05-24T02:54:01.517Z,100.00
2023-05-24T02:56:29.798Z,100.00
2023-05-24T02:58:58.003Z,100.00
2023-05-24T03:01:26.892Z,100.00
2023-05-24T03:03:55.249Z,100.00
2023-05-24T03:06:23.788Z,100.00
2023-05-24T03:08:52.658Z,100.00
2023-05-24T03:11:22.614Z,100.00
2023-05-24T03:13:50.835Z,100.00
2023-05-24T03:16:20.132Z,100.00
2023-05-24T03:18:50.964Z,100.00
2023-05-24T03:21:21.177Z,100.00
2023-05-24T03:23:49.375Z,100.00
2023-05-24T03:26:19.050Z,100.00
2023-05-24T03:28:47.951Z,100.00
2023-05-24T03:31:15.773Z,100.00
2023-05-24T03:33:43.729Z,98.58
2023-05-24T03:36:11.600Z,98.49
2023-05-24T03:38:39.732Z,100.00
2023-05-24T03:41:07.853Z,100.00
2023-05-24T03:43:36.469Z,100.00
2023-05-24T03:46:04.105Z,100.00
2023-05-24T03:48:33.874Z,100.00
2023-05-24T03:51:01.858Z,100.00
2023-05-24T03:53:30.092Z,100.00
2023-05-24T03:55:58.032Z,90.52
2023-05-24T03:58:26.839Z,67.08
2023-05-24T04:00:54.848Z,57.36
2023-05-24T04:03:22.828Z,63.07
2023-05-24T04:05:50.870Z,75.54
2023-05-24T04:08:19.104Z,87.34
2023-05-24T04:10:47.055Z,95.37
2023-05-24T04:13:15.175Z,98.94
2023-05-24T04:15:43.914Z,100.00
2023-05-24T04:18:12.509Z,100.00
2023-05-24T04:20:42.000Z,100.00
2023-05-24T04:23:10.994Z,100.00
2023-05-24T04:25:39.488Z,87.68
2023-05-24T04:28:07.789Z,69.60
2023-05-24T04:30:37.201Z,70.34
2023-05-24T04:33:05.045Z,76.84
2023-05-24T04:35:32.871Z,69.64
2023-05-24T04:38:00.842Z,60.49
2023-05-24T04:40:28.858Z,52.41
2023-05-24T04:42:57.536Z,55.45
2023-05-24T04:45:25.925Z,55.92
2023-05-24T04:47:54.284Z,49.32
2023-05-24T04:50:22.203Z,46.68
2023-05-24T04:52:50.050Z,47.63
2023-05-24T04:55:17.735Z,48.10
2023-05-24T04:57:45.949Z,54.38
2023-05-24T05:00:14.453Z,55.80
2023-05-24T05:02:42.563Z,63.42
2023-05-24T05:05:10.775Z,72.68
2023-05-24T05:07:38.811Z,76.29
2023-05-24T05:10:08.119Z,76.66
2023-05-24T05:12:36.351Z,81.27
2023-05-24T05:15:04.417Z,85.31
2023-05-24T05:17:32.742Z,77.87
2023-05-24T05:20:01.598Z,65.50
2023-05-24T05:22:31.297Z,61.90
2023-05-24T05:25:00.508Z,59.49
2023-05-24T05:27:29.768Z,61.76
2023-05-24T05:29:57.987Z,69.50
2023-05-24T05:32:26.402Z,77.10
2023-05-24T05:34:54.533Z,82.42
2023-05-24T05:37:22.897Z,83.77
2023-05-24T05:39:50.958Z,85.72
2023-05-24T05:42:18.936Z,84.52
2023-05-24T05:44:46.965Z,86.63
2023-05-24T05:47:15.186Z,74.97
2023-05-24T05:49:49.483Z,63.89
2023-05-24T05:52:17.743Z,52.80
2023-05-24T05:54:45.967Z,45.25
2023-05-24T05:57:14.023Z,41.98
2023-05-24T05:59:42.463Z,40.38
2023-05-24T06:02:10.789Z,39.56
2023-05-24T06:04:39.433Z,38.78
2023-05-24T06:07:07.592Z,40.67
2023-05-24T06:09:35.180Z,50.25
2023-05-24T06:12:02.957Z,60.04
2023-05-24T06:14:32.880Z,66.53
2023-05-24T06:17:01.101Z,71.06
2023-05-24T06:19:29.002Z,70.38
2023-05-24T06:21:56.535Z,73.28
2023-05-24T06:24:30.005Z,72.89
2023-05-24T06:26:58.376Z,59.82
2023-05-24T06:29:26.994Z,61.09
2023-05-24T06:31:55.364Z,67.40
2023-05-24T06:34:23.386Z,73.35
2023-05-24T06:36:53.241Z,80.92
2023-05-24T06:39:21.331Z,90.60
2023-05-24T06:41:51.640Z,97.88
2023-05-24T06:44:19.899Z,100.00
2023-05-24T06:46:49.020Z,100.00
2023-05-24T06:49:17.397Z,100.00
2023-05-24T06:51:48.617Z,100.00
2023-05-24T06:54:28.143Z,100.00
2023-05-24T06:56:56.511Z,100.00
2023-05-24T06:59:24.591Z,95.05
2023-05-24T07:01:58.922Z,87.22
2023-05-24T07:04:29.592Z,81.48
2023-05-24T07:06:58.697Z,77.68
2023-05-24T07:09:26.656Z,71.74
2023-05-24T07:11:55.932Z,63.23
2023-05-24T07:14:26.257Z,64.53
2023-05-24T07:16:57.699Z,66.45
2023-05-24T07:19:32.394Z,67.90
2023-05-24T07:22:02.434Z,70.23
2023-05-24T07:24:30.582Z,69.59
2023-05-24T07:27:02.235Z,67.70
2023-05-24T07:29:30.119Z,67.13
2023-05-24T07:31:58.652Z,65.33
2023-05-24T07:34:30.412Z,65.18
2023-05-24T07:37:01.066Z,64.40
2023-05-24T07:39:28.933Z,62.67
2023-05-24T07:41:57.106Z,62.01
2023-05-24T07:44:25.532Z,63.81
2023-05-24T07:46:56.100Z,64.91
2023-05-24T07:49:27.669Z,65.04
2023-05-24T07:51:58.643Z,67.24
2023-05-24T07:54:29.602Z,70.39
2023-05-24T07:57:00.106Z,71.82
2023-05-24T07:59:28.346Z,71.46
2023-05-24T08:02:01.855Z,71.37
2023-05-24T08:04:30.503Z,71.70
2023-05-24T08:07:18.562Z,74.13
2023-05-24T08:10:04.941Z,77.64
2023-05-24T08:12:34.432Z,80.33
2023-05-24T08:15:02.662Z,85.71
2023-05-24T08:17:32.048Z,88.37
2023-05-24T08:20:00.021Z,89.79
2023-05-24T08:22:35.901Z,92.86
2023-05-24T08:25:07.014Z,92.93
2023-05-24T08:27:35.132Z,93.47
2023-05-24T08:30:04.868Z,89.71
2023-05-24T08:32:33.489Z,87.25
2023-05-24T08:35:18.444Z,85.52
2023-05-24T08:37:49.696Z,85.43
2023-05-24T08:40:22.642Z,86.01
2023-05-24T08:42:51.784Z,82.26
2023-05-24T08:45:22.435Z,79.45
2023-05-24T08:47:51.859Z,76.73
2023-05-24T08:50:20.175Z,73.73
2023-05-24T08:52:48.506Z,70.42
2023-05-24T08:55:16.971Z,70.30
2023-05-24T08:57:46.221Z,70.98
2023-05-24T09:00:15.736Z,71.54
2023-05-24T09:02:46.971Z,72.54
2023-05-24T09:05:22.092Z,74.63
2023-05-24T09:07:51.756Z,74.52
2023-05-24T09:10:21.862Z,75.22
2023-05-24T09:12:54.540Z,75.99
2023-05-24T09:15:22.541Z,75.96
2023-05-24T09:17:50.651Z,72.81
2023-05-24T09:20:19.205Z,69.07
2023-05-24T09:22:52.391Z,69.92
2023-05-24T09:25:22.026Z,71.13
2023-05-24T09:27:54.027Z,72.77
2023-05-24T09:30:22.673Z,75.07
2023-05-24T09:33:01.284Z,75.84
2023-05-24T09:35:32.701Z,76.46
2023-05-24T09:38:01.214Z,74.67
2023-05-24T09:40:29.985Z,72.81
2023-05-24T09:43:06.401Z,68.99
2023-05-24T09:45:47.957Z,67.15
2023-05-24T09:48:18.242Z,64.83
2023-05-24T09:50:59.352Z,62.53
2023-05-24T09:53:27.923Z,60.02
2023-05-24T09:55:56.538Z,61.54
2023-05-24T09:58:31.623Z,59.86
2023-05-24T10:01:12.938Z,61.98
2023-05-24T10:03:56.493Z,70.93
2023-05-24T10:06:29.326Z,77.17
2023-05-24T10:08:57.765Z,82.87
2023-05-24T10:11:26.625Z,90.38
2023-05-24T10:13:55.685Z,100.00
2023-05-24T10:16:23.891Z,100.00
2023-05-24T10:18:52.275Z,100.00
2023-05-24T10:21:20.665Z,100.00
2023-05-24T10:23:52.390Z,100.00
2023-05-24T10:26:20.731Z,100.00
2023-05-24T10:28:56.319Z,100.00
2023-05-24T10:31:33.281Z,100.00
2023-05-24T10:34:07.711Z,100.00
2023-05-24T10:36:40.410Z,100.00
2023-05-24T10:39:11.880Z,100.00
2023-05-24T10:41:44.838Z,100.00
2023-05-24T10:44:14.122Z,100.00
2023-05-24T10:47:07.357Z,100.00
2023-05-24T10:49:48.470Z,100.00
2023-05-24T10:52:16.873Z,100.00
2023-05-24T10:55:05.315Z,100.00
2023-05-24T10:57:34.260Z,100.00
2023-05-24T11:03:10.115Z,100.00
2023-05-24T11:05:50.914Z,100.00
2023-05-24T11:08:26.063Z,100.00
2023-05-24T11:13:42.259Z,100.00
2023-05-24T11:16:35.683Z,100.00
2023-05-24T11:19:15.499Z,100.00
2023-05-24T11:21:45.778Z,100.00
2023-05-24T11:24:27.444Z,100.00
2023-05-24T11:26:57.480Z,100.00
2023-05-24T11:29:26.007Z,100.00
2023-05-24T11:31:55.918Z,100.00
2023-05-24T11:34:25.249Z,100.00
2023-05-24T11:36:55.716Z,100.00
2023-05-24T11:39:23.998Z,100.00
2023-05-24T11:41:54.643Z,100.00
2023-05-24T11:44:23.208Z,100.00
2023-05-24T11:46:54.113Z,100.00
2023-05-24T11:49:27.093Z,100.00
2023-05-24T11:51:57.736Z,100.00
2023-05-24T11:54:27.956Z,100.00
2023-05-24T11:56:58.110Z,100.00
2023-05-24T11:59:31.367Z,100.00
2023-05-24T12:02:06.463Z,100.00
2023-05-24T12:04:36.042Z,100.00
2023-05-24T12:07:04.214Z,100.00
2023-05-24T12:09:32.354Z,100.00
2023-05-24T12:12:00.453Z,100.00
2023-05-24T12:14:31.485Z,100.00
2023-05-24T12:17:01.248Z,100.00
2023-05-24T12:19:37.144Z,100.00
2023-05-24T12:22:32.196Z,100.00
2023-05-24T12:25:00.885Z,100.00
2023-05-24T12:27:48.599Z,100.00
2023-05-24T12:30:21.496Z,100.00
2023-05-24T12:32:49.782Z,100.00
2023-05-24T12:35:19.430Z,100.00
2023-05-24T12:37:49.003Z,100.00
2023-05-24T12:40:21.295Z,100.00
2023-05-24T12:42:57.337Z,100.00
2023-05-24T12:45:27.290Z,100.00
2023-05-24T12:47:57.966Z,100.00
2023-05-24T12:50:27.124Z,100.00
2023-05-24T12:52:55.066Z,100.00
2023-05-24T12:55:25.506Z,100.00
2023-05-24T12:57:57.656Z,100.00
2023-05-24T13:00:30.313Z,100.00
2023-05-24T13:03:00.293Z,100.00
2023-05-24T13:05:29.227Z,100.00
2023-05-24T13:07:57.802Z,100.00
2023-05-24T13:10:26.184Z,100.00
2023-05-24T13:12:54.491Z,100.00
2023-05-24T13:15:24.363Z,100.00
2023-05-24T13:17:52.412Z,100.00
2023-05-24T13:20:22.743Z,100.00
2023-05-24T13:22:51.205Z,100.00
2023-05-24T13:25:19.861Z,100.00
2023-05-24T13:27:48.749Z,100.00
2023-05-24T13:30:18.307Z,100.00
2023-05-24T13:32:47.737Z,100.00
2023-05-24T13:35:15.619Z,100.00
2023-05-24T13:38:03.661Z,100.00
2023-05-24T13:40:32.575Z,100.00
2023-05-24T13:43:00.933Z,100.00
2023-05-24T13:45:30.530Z,100.00
2023-05-24T13:48:04.251Z,100.00
2023-05-24T13:50:34.523Z,100.00
2023-05-24T13:53:03.905Z,100.00
2023-05-24T13:55:34.656Z,100.00
2023-05-24T13:58:05.121Z,100.00
2023-05-24T14:00:34.619Z,100.00
2023-05-24T14:03:04.028Z,100.00
2023-05-24T14:05:32.560Z,100.00
2023-05-24T14:08:06.901Z,100.00
2023-05-24T14:10:37.239Z,100.00
2023-05-24T14:15:47.037Z,100.00
2023-05-24T14:18:20.040Z,100.00
2023-05-24T14:20:48.577Z,100.00
2023-05-24T14:23:16.733Z,100.00
2023-05-24T14:25:47.241Z,100.00
2023-05-24T14:28:15.551Z,100.00
2023-05-24T14:30:44.468Z,100.00
2023-05-24T14:33:12.743Z,100.00
2023-05-24T14:35:41.455Z,100.00
2023-05-24T14:38:15.757Z,100.00
2023-05-24T14:40:47.987Z,100.00
2023-05-24T14:43:17.047Z,100.00
2023-05-24T14:45:45.629Z,100.00
2023-05-24T14:48:15.220Z,100.00
2023-05-24T14:50:43.885Z,100.00
2023-05-24T14:53:13.586Z,100.00
2023-05-24T14:55:43.750Z,100.00
2023-05-24T14:58:14.953Z,100.00
2023-05-24T15:00:45.642Z,100.00
2023-05-24T15:03:14.931Z,100.00
2023-05-24T15:05:44.464Z,100.00
2023-05-24T15:08:13.480Z,100.00
2023-05-24T15:10:44.090Z,100.00
2023-05-24T15:13:13.626Z,100.00
2023-05-24T15:15:42.518Z,100.00
2023-05-24T15:18:10.874Z,100.00
2023-05-24T15:20:39.473Z,100.00
2023-05-24T15:23:11.082Z,100.00
2023-05-24T15:25:39.227Z,100.00
2023-05-24T15:28:07.589Z,100.00
2023-05-24T15:30:35.715Z,100.00
2023-05-24T15:33:03.523Z,100.00
2023-05-24T15:35:31.601Z,100.00
2023-05-24T15:37:59.817Z,100.00
2023-05-24T15:40:30.961Z,100.00
2023-05-24T15:42:59.072Z,100.00
2023-05-24T15:45:27.122Z,100.00
2023-05-24T15:48:02.423Z,100.00
2023-05-24T15:50:49.304Z,100.00
2023-05-24T15:53:21.696Z,100.00
2023-05-24T15:55:50.354Z,100.00
2023-05-24T15:58:18.911Z,100.00
2023-05-24T16:00:46.921Z,100.00
2023-05-24T16:03:16.129Z,100.00
2023-05-24T16:05:44.347Z,100.00
2023-05-24T16:08:14.230Z,100.00
2023-05-24T16:10:44.636Z,100.00
2023-05-24T16:13:12.703Z,100.00
2023-05-24T16:15:42.834Z,100.00
2023-05-24T16:18:10.925Z,100.00
2023-05-24T16:20:39.276Z,100.00
2023-05-24T16:23:06.904Z,100.00
2023-05-24T16:25:35.526Z,100.00
2023-05-24T16:28:04.245Z,100.00
2023-05-24T16:30:32.119Z,100.00
2023-05-24T16:33:01.616Z,100.00
2023-05-24T16:35:30.121Z,100.00
2023-05-24T16:37:58.266Z,100.00
2023-05-24T16:40:27.105Z,100.00
2023-05-24T16:42:55.582Z,100.00
2023-05-24T16:45:23.223Z,100.00
2023-05-24T16:47:51.635Z,100.00
2023-05-24T16:50:19.531Z,100.00
2023-05-24T16:52:47.718Z,100.00
2023-05-24T16:55:18.945Z,100.00
2023-05-24T16:57:52.117Z,100.00
2023-05-24T17:00:20.638Z,100.00
2023-05-24T17:02:49.017Z,100.00
2023-05-24T17:05:17.162Z,100.00
2023-05-24T17:07:45.790Z,100.00
2023-05-24T17:10:14.132Z,100.00
2023-05-24T17:12:44.147Z,100.00
2023-05-24T17:15:12.470Z,100.00
2023-05-24T17:17:40.515Z,100.00
2023-05-24T17:20:09.370Z,100.00
2023-05-24T17:22:38.077Z,100.00
2023-05-24T17:25:06.739Z,100.00
2023-05-24T17:27:35.752Z,100.00
2023-05-24T17:30:04.694Z,100.00
2023-05-24T17:32:33.204Z,100.00
2023-05-24T17:35:01.534Z,100.00
2023-05-24T17:37:29.919Z,100.00
2023-05-24T17:39:57.726Z,100.00
2023-05-24T17:42:26.042Z,100.00
2023-05-24T17:44:54.317Z,100.00
2023-05-24T17:47:22.601Z,100.00
2023-05-24T17:49:53.477Z,100.00
2023-05-24T17:52:21.566Z,100.00
2023-05-24T17:54:49.652Z,100.00
2023-05-24T17:57:17.880Z,100.00
2023-05-24T17:59:45.889Z,100.00
2023-05-24T18:02:14.112Z,100.00
2023-05-24T18:04:41.658Z,100.00
2023-05-24T18:07:09.653Z,100.00
2023-05-24T18:09:39.150Z,100.00
2023-05-24T18:12:07.825Z,100.00
2023-05-24T18:14:36.206Z,100.00
2023-05-24T18:17:04.877Z,100.00
2023-05-24T18:19:33.146Z,100.00
2023-05-24T18:22:00.935Z,100.00
2023-05-24T18:24:28.826Z,100.00
2023-05-24T18:26:56.900Z,100.00
2023-05-24T18:29:24.985Z,100.00
2023-05-24T18:31:53.658Z,100.00
2023-05-24T18:34:21.573Z,100.00
2023-05-24T18:36:50.252Z,100.00
2023-05-24T18:39:19.307Z,100.00
2023-05-24T18:41:47.295Z,100.00
2023-05-24T18:44:18.554Z,100.00
2023-05-24T18:46:46.239Z,100.00
2023-05-24T18:49:14.879Z,100.00
2023-05-24T18:51:45.255Z,100.00
2023-05-24T18:54:14.039Z,100.00
2023-05-24T18:56:42.732Z,100.00
2023-05-24T18:59:12.432Z,100.00
2023-05-24T19:01:41.089Z,100.00
2023-05-24T19:04:10.074Z,100.00
2023-05-24T19:06:39.121Z,100.00
2023-05-24T19:09:07.800Z,100.00
2023-05-24T19:11:39.413Z,100.00
2023-05-24T19:14:07.762Z,100.00
2023-05-24T19:16:36.166Z,100.00
2023-05-24T19:19:04.366Z,100.00
2023-05-24T19:21:33.403Z,100.00
2023-05-24T19:24:01.136Z,100.00
2023-05-24T19:26:29.188Z,100.00
2023-05-24T19:28:56.727Z,100.00
2023-05-24T19:31:25.551Z,100.00
2023-05-24T19:34:00.319Z,100.00
2023-05-24T19:36:50.252Z,100.00
2023-05-24T19:39:18.466Z,100.00
2023-05-24T19:41:46.445Z,100.00
2023-05-24T19:44:14.575Z,100.00
2023-05-24T19:46:42.724Z,100.00
2023-05-24T19:49:12.516Z,100.00
2023-05-24T19:51:40.455Z,100.00
2023-05-24T19:54:11.541Z,100.00
2023-05-24T19:56:41.032Z,100.00
2023-05-24T19:59:09.132Z,100.00
2023-05-24T20:01:37.204Z,100.00
2023-05-24T20:04:05.425Z,100.00
2023-05-24T20:06:33.726Z,100.00
2023-05-24T20:09:02.220Z,100.00
2023-05-24T20:11:30.778Z,100.00
2023-05-24T20:13:59.305Z,100.00
2023-05-24T20:16:27.666Z,100.00
2023-05-24T20:18:55.698Z,100.00
2023-05-24T20:21:23.796Z,100.00
2023-05-24T20:23:57.609Z,100.00
2023-05-24T20:26:26.921Z,100.00
2023-05-24T20:28:55.134Z,100.00
2023-05-24T20:31:23.332Z,100.00
2023-05-24T20:33:52.080Z,100.00
2023-05-24T20:36:19.960Z,100.00
2023-05-24T20:38:49.315Z,100.00
2023-05-24T20:41:18.302Z,100.00
2023-05-24T20:43:47.184Z,100.00
2023-05-24T20:46:15.200Z,100.00
2023-05-24T20:48:46.862Z,100.00
2023-05-24T20:51:19.491Z,100.00
2023-05-24T20:53:49.489Z,100.00
2023-05-24T20:56:18.155Z,100.00
2023-05-24T20:58:46.816Z,100.00
2023-05-24T21:01:16.912Z,100.00
2023-05-24T21:03:45.779Z,100.00
2023-05-24T21:06:13.618Z,100.00
2023-05-24T21:08:42.994Z,100.00
2023-05-24T21:11:13.898Z,100.00
2023-05-24T21:13:41.732Z,100.00
2023-05-24T21:16:09.901Z,100.00
2023-05-24T21:18:38.917Z,100.00
2023-05-24T21:21:08.788Z,100.00
2023-05-24T21:23:37.777Z,100.00
2023-05-24T21:26:05.755Z,100.00
2023-05-24T21:28:34.176Z,100.00
2023-05-24T21:31:02.098Z,100.00
2023-05-24T21:33:30.285Z,100.00
2023-05-24T21:35:58.783Z,100.00
2023-05-24T21:38:30.787Z,100.00
2023-05-24T21:40:58.683Z,100.00
2023-05-24T21:43:26.492Z,100.00
2023-05-24T21:45:54.620Z,100.00
2023-05-24T21:48:22.479Z,100.00
2023-05-24T21:50:50.610Z,100.00
2023-05-24T21:53:19.456Z,100.00
2023-05-24T21:55:47.073Z,100.00
2023-05-24T21:58:15.377Z,100.00
2023-05-24T22:00:43.752Z,100.00
2023-05-24T22:03:12.017Z,100.00
2023-05-24T22:05:39.634Z,100.00
2023-05-24T22:08:07.645Z,100.00
2023-05-24T22:10:36.454Z,100.00
2023-05-24T22:13:04.954Z,100.00
2023-05-24T22:15:32.604Z,100.00
2023-05-24T22:18:03.766Z,100.00
2023-05-24T22:20:32.490Z,100.00
2023-05-24T22:23:01.187Z,100.00
2023-05-24T22:25:30.227Z,100.00
2023-05-24T22:27:58.617Z,100.00
2023-05-24T22:30:26.774Z,100.00
2023-05-24T22:32:54.445Z,100.00
2023-05-24T22:35:24.316Z,100.00
2023-05-24T22:37:52.413Z,100.00
2023-05-24T22:40:21.005Z,100.00
2023-05-24T22:42:49.126Z,100.00
2023-05-24T22:45:17.133Z,100.00
2023-05-24T22:47:44.971Z,100.00
2023-05-24T22:50:14.894Z,100.00
2023-05-24T22:52:43.379Z,100.00
2023-05-24T22:55:11.591Z,100.00
2023-05-24T22:57:39.764Z,100.00
2023-05-24T23:00:08.670Z,100.00
2023-05-24T23:02:36.809Z,100.00
2023-05-24T23:05:05.983Z,100.00
2023-05-24T23:07:34.361Z,100.00
2023-05-24T23:10:03.437Z,100.00
2023-05-24T23:12:31.804Z,100.00
2023-05-24T23:14:59.708Z,100.00
2023-05-24T23:17:27.859Z,100.00
2023-05-24T23:19:55.497Z,100.00
2023-05-24T23:22:24.370Z,100.00
2023-05-24T23:24:52.832Z,100.00
2023-05-24T23:27:20.958Z,100.00
2023-05-24T23:29:49.034Z,100.00
2023-05-24T23:32:20.047Z,100.00
2023-05-24T23:34:47.926Z,100.00
2023-05-24T23:37:16.119Z,100.00
2023-05-24T23:39:44.430Z,100.00
2023-05-24T23:42:12.520Z,100.00
2023-05-24T23:44:40.930Z,100.00
2023-05-24T23:47:09.332Z,100.00
2023-05-24T23:49:38.567Z,100.00
2023-05-24T23:52:07.347Z,100.00
2023-05-24T23:54:35.454Z,100.00
2023-05-24T23:57:04.359Z,100.00
2023-05-24T23:59:33.449Z,100.00
